Impacts TAF Board INFO
FOR SITUATIONAL AWARENESS. NOT TO BE USED FOR FLIGHT PLANNING PURPOSES.
IDs:

KMCI - Kansas City Intl, MO, US

Issued at 1120 UTC 20 Jan 2017
Updated at 1202 UTC 20 Jan 2017
Potential Impact None Slight Moderate High
Time1153Z 20/13Z 20/14Z 20/15Z 20/16Z 20/17Z 20/18Z 20/19Z 20/20Z 20/21Z 20/22Z 20/23Z 21/00Z 21/01Z
Type OBS PRVL PRVL PRVL PRVL PRVL PRVL PRVL PRVL PRVL PRVL PRVL PRVL PRVL
VIS 0.5 0.5 0.5 0.5 3 3 3 3 >6 >6 >6 >6 >6 >6
CIG 2 2 2 2 6 6 6 6 12 12 12 12 12 12
Cover OVX OVC OVC OVC OVC OVC OVC OVC OVC OVC OVC OVC OVC OVC
FltCat LIFR LIFR LIFR LIFR IFR IFR IFR IFR MVFR MVFR MVFR MVFR MVFR MVFR
WX FG FG FG FG BR BR BR BR -- -- -- -- -- --
WDir 160 VRB VRB VRB 110 110 110 110 130 130 130 130 130 130
WSpd 7 4 4 4 8 8 8 8 8 8 8 8 8 8
WGst -- -- -- -- -- -- -- -- -- -- -- -- -- --

Raw TAF
KMCI 201120Z 2012/2112 VRB04KT 1/2SM FG OVC002
  FM201600 11008KT 3SM BR OVC006
  FM202000 13008KT P6SM OVC012
  FM210200 17007KT P6SM BKN040


Raw METAR
KMCI 201153Z 16007KT 1/2SM R19R/2600V4000FT FG VV002 07/06 A2957 RMK AO2 SLP015 60001 70002 T00720061 10078 20067 55006
KMCI 201053Z 13004KT 1/2SM R19R/3500VP6000FT BR OVC002 07/06 A2956 RMK AO2 SFC VIS 1 1/2 SLP010 T00720061
KMCI 201032Z 14006KT 1/2SM R19R/2200V3500FT FG VV002 07/06 A2957 RMK AO2 T00670056
KMCI 201023Z 12005KT 1/4SM R19R/1800V3000FT FG VV002 07/06 A2957 RMK AO2 TWR VIS 1/2 T00720056
KMCI 201012Z 13004KT 1/4SM R19R/1800FT FG VV002 07/06 A2957 RMK AO2 TWR VIS 1/2 T00720061
KMCI 200953Z 07005KT 1/4SM R19R/1800V2200FT FG BKN001 OVC035 07/06 A2955 RMK AO2 TWR VIS 1/2 SLP007 T00720061
KMCI 200945Z 06005KT 1/4SM R19R/1800V2200FT FG BKN001 OVC034 07/06 A2955 RMK AO2 TWR VIS 1/2 T00720061

METAR Board
Radar Display
Forecast Discussion

FOR SITUATIONAL AWARENESS. NOT TO BE USED FOR FLIGHT PLANNING PURPOSES.

Page loaded:  12:02 UTC  |   04:02 AM Pacific  |   05:02 AM Mountain  |   06:02 AM Central  |   07:02 AM Eastern

 

ADVISORIES

FORECASTS

FORECASTS

OBSERVATIONS

USER TOOLS

ABOUT US